Anza Borrego Desert Research Center, California Weather observations

Data are for 10 minute period ending at time listed.
 Day   Time   Solar   Ave.   Ave.  Ave.  Vector  Max.   Baro.   Total    
  of    of     Rad.   Air    Rel.  Wind   Wind   Wind  Press.  Precip.   
Year   Day            Temp.  Hum.  Speed  Dir.   Gust                    
2015   (PST)  Kw/m2    F      %     mph   deg.    mph    mb.     in.     
-------------------------------------------------------------------------
 147    5:50   0.10   70.0    37    5.2   244     6.1   501.8    0.00 
 147    6:00   0.14   72.9    35    4.4   236     5.0   501.8    0.00 
 147    6:10   0.19   75.5    33    3.0   236     4.2   501.8    0.00 
 147    6:20   0.25   77.7    32    2.1   214     3.3   501.8    0.00 
 147    6:30   0.30   80.0    30    1.9   175     3.9   501.8    0.00 
 147    6:40   0.31   80.0    30    3.1   174     4.7   501.8    0.00 
 147    6:50   0.34   79.4    30    4.1   145     6.0   501.8    0.00 
 147    7:00   0.39   79.3    30    3.7   138     5.6   501.8    0.00 
 147    7:10   0.41   79.8    29    3.8   125     5.3   501.8    0.00 
 147    7:20   0.45   79.9    29    4.2   103     6.9   501.8    0.00 
 147    7:30   0.49   80.9    28    3.2   119     7.0   501.9    0.00 
 147    7:40   0.53   80.8    29    4.4    95     6.9   501.9    0.00 
 147    7:50   0.56   81.4    28    5.4   129     8.6   502.0    0.00 
 147    8:00   0.59   82.4    26    3.4   135     6.6   502.0    0.00 
 147    8:10   0.63   82.3    26    6.7   145    11.4   502.0    0.00 
 147    8:20   0.66   81.4    27    7.4   118    11.4   502.0    0.00 
 147    8:30   0.69   80.8    28    7.5    88    11.6   502.0    0.00 
 147    8:40   0.72   81.7    28    6.3    94    11.3   502.0    0.00 
 147    8:50   0.74   81.9    28    6.7   100    11.3   502.0    0.00 
 147    9:00   0.77   82.9    27    4.7    77     8.6   502.0    0.00 
 147    9:10   0.80   83.6    27    3.2    63     8.0   502.0    0.00 
 147    9:20   0.82   84.1    26    4.5    96     8.5   502.0    0.00 
 147    9:30   0.85   84.8    25    2.9    72     6.2   502.0    0.00 
 147    9:40   0.87   85.3    25    2.5    91     8.6   502.0    0.00 
 147    9:50   0.89   85.2    25    4.6   129    11.2   502.0    0.00 
 147   10:00   0.90   85.1    25    5.0    96    10.7   502.0    0.00 
 147   10:10   0.92   85.9    24    4.5    96     9.1   502.1    0.00 
 147   10:20   0.94   85.6    25    6.3    87    11.6   502.1    0.00 
 147   10:30   0.95   85.9    24    6.1    89    12.6   502.1    0.00 
 147   10:40   0.96   86.4    24    5.5   109    10.7   502.1    0.00 
 147   10:50   0.97   87.0    24    7.0    91    12.2   502.1    0.00 
 147   11:00   0.98   88.4    22    7.2   122    11.4   502.1    0.00 
 147   11:10   0.98   87.7    22    6.3    81    11.3   502.1    0.00 
 147   11:20   0.98   87.6    22    6.2    88    10.7   502.1    0.00 
 147   11:30   0.99   88.2    22    4.9    98    10.5   502.1    0.00 
 147   11:40   0.99   88.7    21    4.5    80     8.7   502.1    0.00 
 147   11:50   0.99   89.2    20    5.3    81    12.2   502.1    0.00 
 147   12:00   0.98   89.7    20    5.4    83    11.7   502.1    0.00 
 147   12:10   0.98   89.8    20    6.3    90    12.0   502.1    0.00 
 147   12:20   0.98   89.9    20    4.9    65    12.1   502.1    0.00 
 147   12:30   0.95   90.5    20    6.4    95    12.6   502.1    0.00 
 147   12:40   0.97   91.4    19    7.1   114    15.6   502.2    0.00 
 147   12:50   0.97   91.0    19    6.0    99    12.3   502.3    0.00 
 147   13:00   0.95   91.2    19    5.2    96    10.9   502.3    0.00 
 147   13:10   0.94   92.5    19    5.2    92    14.1   502.3    0.00 
 147   13:20   0.93   91.7    19    7.8   103    14.7   502.3    0.00 
 147   13:30   0.91   92.0    19    4.8    71    12.3   502.3    0.00 
 147   13:40   0.90   92.2    19    7.8   105    14.4   502.3    0.00 
 147   13:50   0.88   92.3    19    4.9   134    11.2   502.3    0.00 
 147   14:00   0.86   92.9    19    6.7   135    11.1   502.3    0.00 
 147   14:10   0.83   92.1    19    7.4    79    14.3   502.3    0.00 
 147   14:20   0.81   92.2    19    5.5    90    12.9   502.3    0.00 
 147   14:30   0.78   93.8    18    4.4   170     9.5   502.3    0.00 
 147   14:40   0.76   93.3    19    7.8   102    13.9   502.3    0.00 
 147   14:50   0.73   92.9    19    5.8   124    13.9   502.3    0.00 
 147   15:00   0.70   93.5    19    8.6   110    15.0   502.3    0.00 
 147   15:10   0.67   93.6    19    6.8   171    12.5   502.3    0.00 
 147   15:20   0.64   93.9    19    5.6   108    11.5   502.3    0.00 
 147   15:30   0.61   93.6    19    6.6   100    13.7   502.3    0.00 
 147   15:40   0.58   93.6    19    4.6   115    11.4   502.3    0.00 
 147   15:50   0.55   94.2    18    7.6   124    12.4   502.3    0.00 
 147   16:00   0.52   94.0    19    6.9   132    13.5   502.3    0.00 
 147   16:10   0.48   94.2    18    7.4    93    12.8   502.3    0.00 
 147   16:20   0.45   93.4    19    7.4    91    14.0   502.3    0.00 
 147   16:30   0.41   93.9    19    5.2   117    10.4   502.3    0.00 
 147   16:40   0.38   93.9    19    4.7    99    10.8   502.3    0.00 
 147   16:50   0.34   93.8    19    5.6   116    12.3   502.3    0.00 
 147   17:00   0.31   93.7    19    5.8    95    10.7   502.3    0.00 
 147   17:10   0.27   93.9    20    4.4   178     8.4   502.3    0.00 
 147   17:20   0.23   94.4    20    2.7   180     7.2   502.3    0.00 
 147   17:30   0.20   94.1    20    2.9   165     7.3   502.3    0.00 
 147   17:40   0.04   92.3    20    3.1   297     6.1   502.2    0.00 
 147   17:50   0.03   90.3    22    3.0   306     6.8   502.1    0.00 
 147   18:00   0.03   89.5    23    8.9   318    14.9   502.1    0.00 
 147   18:10   0.01   88.9    24   10.5   318    15.7   502.1    0.00 
 147   18:20   0.01   88.5    24    9.5   313    13.7   502.1    0.00 
 147   18:30   0.01   88.1    24    8.7   317    13.9   502.1    0.00 
 147   18:40   0.01   87.9    24    7.2   318    12.1   502.1    0.00 
 147   18:50   0.00   87.3    24    7.6   310    13.7   502.0    0.00 
 147   19:00   0.00   87.0    23    7.3   308    12.8   502.0    0.00 
 147   19:10   0.00   86.8    23    7.1   313     9.9   502.0    0.00 
 147   19:20   0.00   86.5    22    6.4   299    10.2   502.0    0.00 
 147   19:30   0.00   86.3    22    6.1   317     9.3   502.0    0.00 
 147   19:40   0.00   86.3    21    7.4   300    11.2   502.0    0.00 
 147   19:50   0.00   85.9    20    5.9   296    11.4   502.0    0.00 
 147   20:00   0.00   85.9    20    6.5   307    10.2   502.0    0.00 
 147   20:10   0.00   85.7    20    4.1   345     8.0   502.0    0.00 
 147   20:20   0.00   85.0    25    2.5    61     5.8   502.0    0.00 
 147   20:30   0.00   84.1    26    3.3   337     6.5   502.0    0.00 
 147   20:40   0.00   83.4    27    5.0   116     8.2   502.0    0.00 
 147   20:50   0.00   83.0    27    4.1   110     8.3   502.0    0.00 
 147   21:00   0.00   82.7    28    1.6   102     3.4   502.0    0.00 
 147   21:10   0.00   81.6    29    1.9   134     3.8   502.0    0.00 
 147   21:20   0.00   80.6    29    2.0   143     3.3   502.0    0.00 
 147   21:30   0.00   78.4    30    3.4   185     7.5   501.9    0.00 
 147   21:40   0.00   78.0    31    4.1   199     6.8   501.9    0.00 
 147   21:50   0.00   79.1    30    4.1   262     7.9   501.8    0.00 
 147   22:00   0.00   79.8    30    1.8   312     3.5   501.8    0.00 
 147   22:10   0.00   78.2    31    2.2   304     3.6   501.8    0.00 
 147   22:20   0.00   75.3    33    1.4   273     2.9   501.8    0.00 
 147   22:30   0.00   75.3    33    3.2   348     4.5   501.8    0.00 
 147   22:40   0.00   75.9    34    3.1   358     3.9   501.8    0.00 
 147   22:50   0.00   76.3    33    2.0   348     3.0   501.8    0.00 
 147   23:00   0.00   74.7    34    0.4   270     1.3   501.8    0.00 
 147   23:10   0.00   72.5    36    2.0   249     2.9   501.8    0.00 
 147   23:20   0.00   71.4    37    2.2   228     3.4   501.8    0.00 
 147   23:30   0.00   71.5    38    3.1   196     4.2   501.8    0.00 
 147   23:40   0.00   72.1    37    2.1   219     3.7   501.8    0.00 
 147   23:50   0.00   71.5    37    3.9   234     5.2   501.8    0.00 
 148    0:00   0.00   71.8    36    3.3   236     5.6   501.8    0.00 
 148    0:10   0.00   71.3    37    3.8   219     5.7   501.8    0.00 
 148    0:20   0.00   71.5    37    3.1   240     5.4   501.8    0.00 
 148    0:30   0.00   71.9    36    3.1   248     5.2   501.8    0.00 
 148    0:40   0.00   73.2    34    3.0   195     4.2   501.8    0.00 
 148    0:50   0.00   73.2    35    1.7   108     3.2   501.8    0.00 
 148    1:00   0.00   73.6    35    1.7     6     3.4   501.8    0.00 
 148    1:10   0.00   72.5    36    1.3   279     2.0   501.8    0.00 
 148    1:20   0.00   71.5    38    4.4   250     6.7   501.8    0.00 
 148    1:30   0.00   70.6    38    5.7   235     7.2   501.8    0.00 
 148    1:40   0.00   69.7    39    4.2   211     5.6   501.8    0.00 
 148    1:50   0.00   70.5    38    0.9   116     3.2   501.8    0.00 
 148    2:00   0.00   71.6    37    2.7   203     5.0   501.8    0.00 
 148    2:10   0.00   72.6    36    2.9   223     4.5   501.8    0.00 
 148    2:20   0.00   71.5    37    4.7   201     6.9   501.8    0.00 
 148    2:30   0.00   71.1    37    5.6   207     7.5   501.8    0.00 
 148    2:40   0.00   71.4    37    5.2   221     6.1   501.8    0.00 
 148    2:50   0.00   71.7    37    4.4   230     5.8   501.8    0.00 
 148    3:00   0.00   70.0    38    3.5   227     5.8   501.8    0.00 
 148    3:10   0.00   69.4    38    1.5   286     4.5   501.8    0.00 
 148    3:20   0.00   68.4    39    2.7   283     4.4   501.8    0.00 
 148    3:30   0.00   68.8    38    1.9   267     4.7   501.8    0.00 
 148    3:40   0.00   68.0    39    3.4   263     5.0   501.8    0.00 
 148    3:50   0.00   68.9    38    1.8   253     2.7   501.8    0.00 
 148    4:00   0.00   69.3    37    3.4   252     4.7   501.8    0.00 
 148    4:10   0.00   68.8    39    2.9   279     3.4   501.8    0.00 
 148    4:20   0.00   68.5    39    2.0   354     3.6   501.8    0.00 
 148    4:30   0.00   69.0    39    1.4    16     2.5   501.8    0.00 
 148    4:40   0.00   69.8    39    1.5   240     2.2   501.8    0.00 
 148    4:50   0.00   70.7    39    1.5   256     2.1   501.8    0.00 
 148    5:00   0.02   69.0    40    3.1   267     4.2   501.8    0.00 
 148    5:10   0.04   69.3    40    4.2   272     5.6   501.8    0.00 
 148    5:20   0.06   72.6    36    4.3   255     5.5   501.8    0.00 
 148    5:30   0.09   74.6    34    4.0   239     5.2   501.8    0.00 
 148    5:40   0.11   77.0    32    3.2   261     4.5   501.8    0.00 

Return to Anza Borrego Desert Research Center graphs page.


Western Regional Climate Center,wrcc@dri.edu